CheckWX is a tool to help pilots better visualize weather data.  It is not intended as a substitute for an official pre-flight weather briefing.

01:44:44 UTC

GQNO METAR
Nouakchott–Oumtounsy International Airport
Nouakchott, Mauritania
Current

45 mins ago

GQNO 200100Z 28009KT 6000 NSC 24/21 Q1010 NOSIG
Observed
Jul-20 @ 01:00 UTC
Wind
  • 280° at 9 KTS
Visibility
6,000 meters
Flight Rules
MVFR
Cloud Levels
  • Clear skies
Temperature
24°C / 75°F
Dewpoint
21°C / 70°F
Humidity
83%
Altimeter
29.82" Hg
Pressure
1009.92 hPa
Previous

1 hour ago

GQNO 200030Z 28008KT 7000 NSC 24/21 Q1010 NOSIG
Observed
Jul-20 @ 00:30 UTC
Wind
  • 280° at 8 KTS
Visibility
7,000 meters
Flight Rules
MVFR
Cloud Levels
  • Clear skies
Temperature
24°C / 75°F
Dewpoint
21°C / 70°F
Humidity
83%
Altimeter
29.82" Hg
Pressure
1009.92 hPa
Previous

2 hours ago

GQNO 200000Z 27006KT 7000 NSC 25/21 Q1011 NOSIG
Observed
Jul-20 @ 00:00 UTC
Wind
  • 270° at 6 KTS
Visibility
7,000 meters
Flight Rules
MVFR
Cloud Levels
  • Clear skies
Temperature
25°C / 77°F
Dewpoint
21°C / 70°F
Humidity
79%
Altimeter
29.85" Hg
Pressure
1010.92 hPa